sensor_id;sensor_type;location;lat;lon;timestamp;P1;durP1;ratioP1;P2;durP2;ratioP2
52512;SDS011;38422;53.172;6.974;2024-03-23T00:54:34;16.53;;;3.80;;
52512;SDS011;38422;53.172;6.974;2024-03-23T00:56:59;17.73;;;3.35;;
52512;SDS011;38422;53.172;6.974;2024-03-23T00:59:25;21.88;;;3.63;;
52512;SDS011;38422;53.172;6.974;2024-03-23T01:01:54;18.23;;;3.17;;
52512;SDS011;38422;53.172;6.974;2024-03-23T01:04:20;21.27;;;2.90;;
52512;SDS011;38422;53.172;6.974;2024-03-23T01:06:46;17.88;;;3.35;;
52512;SDS011;38422;53.172;6.974;2024-03-23T01:09:12;17.45;;;3.33;;
52512;SDS011;38422;53.172;6.974;2024-03-23T01:11:38;20.33;;;3.30;;
52512;SDS011;38422;53.172;6.974;2024-03-23T01:14:05;17.02;;;2.83;;
52512;SDS011;38422;53.172;6.974;2024-03-23T01:16:33;18.33;;;3.40;;
52512;SDS011;38422;53.172;6.974;2024-03-23T01:18:59;18.92;;;3.28;;
52512;SDS011;38422;53.172;6.974;2024-03-23T01:21:25;17.83;;;3.10;;
52512;SDS011;38422;53.172;6.974;2024-03-23T01:23:50;16.58;;;3.20;;
52512;SDS011;38422;53.172;6.974;2024-03-23T01:26:16;13.45;;;2.80;;
52512;SDS011;38422;53.172;6.974;2024-03-23T01:28:42;20.90;;;3.22;;
52512;SDS011;38422;53.172;6.974;2024-03-23T01:31:07;14.55;;;2.60;;
52512;SDS011;38422;53.172;6.974;2024-03-23T01:33:33;12.57;;;2.97;;
52512;SDS011;38422;53.172;6.974;2024-03-23T01:35:59;19.92;;;3.40;;
52512;SDS011;38422;53.172;6.974;2024-03-23T01:38:24;17.58;;;2.97;;
52512;SDS011;38422;53.172;6.974;2024-03-23T01:40:55;13.30;;;2.90;;
52512;SDS011;38422;53.172;6.974;2024-03-23T01:43:22;15.88;;;2.97;;
52512;SDS011;38422;53.172;6.974;2024-03-23T01:45:48;18.83;;;3.03;;
52512;SDS011;38422;53.172;6.974;2024-03-23T01:48:14;19.10;;;3.00;;
52512;SDS011;38422;53.172;6.974;2024-03-23T01:50:39;17.83;;;2.75;;
52512;SDS011;38422;53.172;6.974;2024-03-23T01:53:05;16.88;;;2.88;;
52512;SDS011;38422;53.172;6.974;2024-03-23T01:55:32;19.58;;;3.42;;
52512;SDS011;38422;53.172;6.974;2024-03-23T01:57:58;18.13;;;3.00;;
52512;SDS011;38422;53.172;6.974;2024-03-23T02:00:24;18.17;;;2.63;;
52512;SDS011;38422;53.172;6.974;2024-03-23T02:02:50;13.75;;;2.85;;
52512;SDS011;38422;53.172;6.974;2024-03-23T02:05:16;19.17;;;3.03;;
52512;SDS011;38422;53.172;6.974;2024-03-23T02:07:42;17.33;;;2.83;;
52512;SDS011;38422;53.172;6.974;2024-03-23T02:10:08;20.15;;;3.80;;
52512;SDS011;38422;53.172;6.974;2024-03-23T02:12:35;16.70;;;2.90;;
52512;SDS011;38422;53.172;6.974;2024-03-23T02:15:02;13.07;;;2.65;;
52512;SDS011;38422;53.172;6.974;2024-03-23T02:17:29;16.65;;;3.05;;
52512;SDS011;38422;53.172;6.974;2024-03-23T02:19:57;15.07;;;2.90;;
52512;SDS011;38422;53.172;6.974;2024-03-23T02:22:22;19.23;;;3.58;;
52512;SDS011;38422;53.172;6.974;2024-03-23T02:24:48;18.10;;;2.85;;
52512;SDS011;38422;53.172;6.974;2024-03-23T02:27:14;15.48;;;2.63;;
52512;SDS011;38422;53.172;6.974;2024-03-23T02:29:39;18.90;;;3.10;;
52512;SDS011;38422;53.172;6.974;2024-03-23T02:32:05;15.48;;;2.90;;
52512;SDS011;38422;53.172;6.974;2024-03-23T02:34:31;18.90;;;2.97;;
52512;SDS011;38422;53.172;6.974;2024-03-23T02:36:57;11.45;;;2.50;;
52512;SDS011;38422;53.172;6.974;2024-03-23T02:39:22;14.45;;;2.50;;
52512;SDS011;38422;53.172;6.974;2024-03-23T02:41:48;15.38;;;2.70;;
52512;SDS011;38422;53.172;6.974;2024-03-23T02:44:14;12.18;;;2.53;;
52512;SDS011;38422;53.172;6.974;2024-03-23T02:46:39;18.88;;;2.90;;
52512;SDS011;38422;53.172;6.974;2024-03-23T02:49:06;11.90;;;2.75;;
52512;SDS011;38422;53.172;6.974;2024-03-23T02:51:32;17.27;;;2.60;;
52512;SDS011;38422;53.172;6.974;2024-03-23T02:53:58;18.08;;;3.33;;
52512;SDS011;38422;53.172;6.974;2024-03-23T02:56:23;14.40;;;2.60;;
52512;SDS011;38422;53.172;6.974;2024-03-23T02:58:49;16.95;;;2.85;;
52512;SDS011;38422;53.172;6.974;2024-03-23T03:01:15;11.80;;;2.50;;
52512;SDS011;38422;53.172;6.974;2024-03-23T03:03:40;14.77;;;2.38;;
52512;SDS011;38422;53.172;6.974;2024-03-23T03:06:06;12.15;;;3.22;;
52512;SDS011;38422;53.172;6.974;2024-03-23T03:08:32;14.75;;;2.72;;
52512;SDS011;38422;53.172;6.974;2024-03-23T03:10:58;17.13;;;2.80;;
52512;SDS011;38422;53.172;6.974;2024-03-23T03:13:23;14.13;;;2.60;;
52512;SDS011;38422;53.172;6.974;2024-03-23T03:15:49;15.88;;;2.83;;
52512;SDS011;38422;53.172;6.974;2024-03-23T03:18:15;17.02;;;2.83;;
52512;SDS011;38422;53.172;6.974;2024-03-23T03:20:40;12.60;;;2.63;;
52512;SDS011;38422;53.172;6.974;2024-03-23T03:23:06;17.15;;;3.13;;
52512;SDS011;38422;53.172;6.974;2024-03-23T03:25:32;11.38;;;2.58;;
52512;SDS011;38422;53.172;6.974;2024-03-23T03:27:58;16.75;;;2.60;;
52512;SDS011;38422;53.172;6.974;2024-03-23T03:30:24;12.45;;;2.80;;
52512;SDS011;38422;53.172;6.974;2024-03-23T03:32:52;15.50;;;2.40;;
52512;SDS011;38422;53.172;6.974;2024-03-23T03:35:19;9.02;;;2.15;;
52512;SDS011;38422;53.172;6.974;2024-03-23T03:37:45;16.38;;;2.67;;
52512;SDS011;38422;53.172;6.974;2024-03-23T03:40:11;12.35;;;2.92;;
52512;SDS011;38422;53.172;6.974;2024-03-23T03:42:37;13.57;;;2.28;;
52512;SDS011;38422;53.172;6.974;2024-03-23T03:45:03;15.30;;;2.20;;
52512;SDS011;38422;53.172;6.974;2024-03-23T03:47:29;13.15;;;2.60;;
52512;SDS011;38422;53.172;6.974;2024-03-23T03:49:55;12.57;;;2.30;;
52512;SDS011;38422;53.172;6.974;2024-03-23T03:52:21;10.65;;;2.67;;
52512;SDS011;38422;53.172;6.974;2024-03-23T03:54:47;9.13;;;2.17;;
52512;SDS011;38422;53.172;6.974;2024-03-23T03:57:12;9.93;;;2.33;;
52512;SDS011;38422;53.172;6.974;2024-03-23T03:59:38;15.70;;;2.53;;
52512;SDS011;38422;53.172;6.974;2024-03-23T04:02:04;11.10;;;2.35;;
52512;SDS011;38422;53.172;6.974;2024-03-23T04:04:30;14.30;;;2.38;;
52512;SDS011;38422;53.172;6.974;2024-03-23T04:06:59;12.32;;;2.45;;
52512;SDS011;38422;53.172;6.974;2024-03-23T04:09:25;19.58;;;2.63;;
52512;SDS011;38422;53.172;6.974;2024-03-23T04:11:51;11.73;;;2.65;;
52512;SDS011;38422;53.172;6.974;2024-03-23T04:14:16;9.20;;;2.30;;
52512;SDS011;38422;53.172;6.974;2024-03-23T04:16:42;12.23;;;2.10;;
52512;SDS011;38422;53.172;6.974;2024-03-23T04:19:08;12.98;;;2.30;;
52512;SDS011;38422;53.172;6.974;2024-03-23T04:21:34;12.32;;;2.22;;
52512;SDS011;38422;53.172;6.974;2024-03-23T04:24:00;12.65;;;1.98;;
52512;SDS011;38422;53.172;6.974;2024-03-23T04:26:26;12.45;;;2.20;;
52512;SDS011;38422;53.172;6.974;2024-03-23T04:28:53;13.15;;;2.40;;
52512;SDS011;38422;53.172;6.974;2024-03-23T04:31:19;12.70;;;2.30;;
52512;SDS011;38422;53.172;6.974;2024-03-23T04:33:44;14.63;;;2.78;;
52512;SDS011;38422;53.172;6.974;2024-03-23T04:36:10;11.27;;;2.20;;
52512;SDS011;38422;53.172;6.974;2024-03-23T04:38:35;12.85;;;2.25;;
52512;SDS011;38422;53.172;6.974;2024-03-23T04:41:01;14.05;;;2.15;;
52512;SDS011;38422;53.172;6.974;2024-03-23T04:43:27;10.93;;;2.20;;
52512;SDS011;38422;53.172;6.974;2024-03-23T04:45:53;14.00;;;2.40;;
52512;SDS011;38422;53.172;6.974;2024-03-23T04:48:20;10.02;;;2.00;;
52512;SDS011;38422;53.172;6.974;2024-03-23T04:50:47;11.82;;;2.67;;
52512;SDS011;38422;53.172;6.974;2024-03-23T04:53:20;9.00;;;2.33;;
52512;SDS011;38422;53.172;6.974;2024-03-23T04:55:46;12.38;;;2.38;;
52512;SDS011;38422;53.172;6.974;2024-03-23T04:58:11;12.15;;;2.03;;
52512;SDS011;38422;53.172;6.974;2024-03-23T05:00:38;14.73;;;2.05;;
52512;SDS011;38422;53.172;6.974;2024-03-23T05:03:03;12.30;;;2.42;;
52512;SDS011;38422;53.172;6.974;2024-03-23T05:05:29;10.45;;;2.30;;
52512;SDS011;38422;53.172;6.974;2024-03-23T05:07:55;10.48;;;2.33;;
52512;SDS011;38422;53.172;6.974;2024-03-23T05:10:20;12.98;;;2.20;;
52512;SDS011;38422;53.172;6.974;2024-03-23T05:12:46;10.20;;;1.77;;
52512;SDS011;38422;53.172;6.974;2024-03-23T05:15:12;15.30;;;1.95;;
52512;SDS011;38422;53.172;6.974;2024-03-23T05:17:37;8.77;;;2.38;;
52512;SDS011;38422;53.172;6.974;2024-03-23T05:20:04;12.98;;;2.20;;
52512;SDS011;38422;53.172;6.974;2024-03-23T05:22:34;11.63;;;1.90;;
52512;SDS011;38422;53.172;6.974;2024-03-23T05:25:03;8.93;;;2.17;;
52512;SDS011;38422;53.172;6.974;2024-03-23T05:27:31;16.15;;;2.03;;
52512;SDS011;38422;53.172;6.974;2024-03-23T05:29:58;9.63;;;1.50;;
52512;SDS011;38422;53.172;6.974;2024-03-23T05:32:24;11.45;;;1.80;;
52512;SDS011;38422;53.172;6.974;2024-03-23T05:34:49;12.30;;;1.80;;
52512;SDS011;38422;53.172;6.974;2024-03-23T05:37:20;10.75;;;1.58;;
52512;SDS011;38422;53.172;6.974;2024-03-23T05:39:47;8.30;;;2.03;;
52512;SDS011;38422;53.172;6.974;2024-03-23T05:42:15;10.25;;;1.55;;
52512;SDS011;38422;53.172;6.974;2024-03-23T05:44:42;9.15;;;1.88;;
52512;SDS011;38422;53.172;6.974;2024-03-23T05:47:11;9.07;;;1.65;;
52512;SDS011;38422;53.172;6.974;2024-03-23T05:49:41;8.45;;;1.67;;
52512;SDS011;38422;53.172;6.974;2024-03-23T05:52:07;6.40;;;1.42;;
52512;SDS011;38422;53.172;6.974;2024-03-23T05:54:34;5.60;;;1.60;;
52512;SDS011;38422;53.172;6.974;2024-03-23T05:57:02;10.57;;;1.85;;
52512;SDS011;38422;53.172;6.974;2024-03-23T05:59:28;6.22;;;1.25;;
52512;SDS011;38422;53.172;6.974;2024-03-23T06:01:54;9.57;;;1.35;;
52512;SDS011;38422;53.172;6.974;2024-03-23T06:04:20;12.02;;;1.70;;
52512;SDS011;38422;53.172;6.974;2024-03-23T06:06:46;10.48;;;2.05;;
52512;SDS011;38422;53.172;6.974;2024-03-23T06:09:12;7.78;;;1.58;;
52512;SDS011;38422;53.172;6.974;2024-03-23T06:11:38;7.72;;;1.38;;
52512;SDS011;38422;53.172;6.974;2024-03-23T06:14:03;10.43;;;1.42;;
52512;SDS011;38422;53.172;6.974;2024-03-23T06:16:30;8.70;;;1.77;;
52512;SDS011;38422;53.172;6.974;2024-03-23T06:18:55;6.50;;;1.13;;
52512;SDS011;38422;53.172;6.974;2024-03-23T06:21:21;7.78;;;1.40;;
52512;SDS011;38422;53.172;6.974;2024-03-23T06:23:50;10.43;;;1.48;;
52512;SDS011;38422;53.172;6.974;2024-03-23T06:26:18;12.82;;;1.13;;
52512;SDS011;38422;53.172;6.974;2024-03-23T06:28:44;7.43;;;1.50;;
52512;SDS011;38422;53.172;6.974;2024-03-23T06:31:10;13.77;;;1.25;;
52512;SDS011;38422;53.172;6.974;2024-03-23T06:33:36;8.43;;;1.30;;
52512;SDS011;38422;53.172;6.974;2024-03-23T06:36:03;6.15;;;1.30;;
52512;SDS011;38422;53.172;6.974;2024-03-23T06:38:33;7.13;;;1.13;;
52512;SDS011;38422;53.172;6.974;2024-03-23T06:41:02;12.27;;;1.67;;
52512;SDS011;38422;53.172;6.974;2024-03-23T06:43:28;9.45;;;1.23;;
52512;SDS011;38422;53.172;6.974;2024-03-23T06:45:54;5.45;;;0.82;;
52512;SDS011;38422;53.172;6.974;2024-03-23T06:48:20;3.80;;;0.50;;
52512;SDS011;38422;53.172;6.974;2024-03-23T06:50:46;2.70;;;0.63;;
52512;SDS011;38422;53.172;6.974;2024-03-23T06:53:13;2.40;;;0.50;;
52512;SDS011;38422;53.172;6.974;2024-03-23T06:55:38;4.50;;;0.63;;
52512;SDS011;38422;53.172;6.974;2024-03-23T06:58:04;3.65;;;0.50;;
52512;SDS011;38422;53.172;6.974;2024-03-23T07:00:30;2.90;;;0.55;;
52512;SDS011;38422;53.172;6.974;2024-03-23T07:02:57;2.65;;;0.45;;
52512;SDS011;38422;53.172;6.974;2024-03-23T07:05:23;3.03;;;0.50;;
52512;SDS011;38422;53.172;6.974;2024-03-23T07:07:49;1.15;;;0.38;;
52512;SDS011;38422;53.172;6.974;2024-03-23T07:10:15;2.22;;;0.50;;
52512;SDS011;38422;53.172;6.974;2024-03-23T07:12:40;4.15;;;0.40;;
52512;SDS011;38422;53.172;6.974;2024-03-23T07:15:06;3.85;;;0.70;;
52512;SDS011;38422;53.172;6.974;2024-03-23T07:17:33;1.55;;;0.35;;
52512;SDS011;38422;53.172;6.974;2024-03-23T07:20:00;3.78;;;0.47;;
52512;SDS011;38422;53.172;6.974;2024-03-23T07:22:29;2.03;;;0.40;;
52512;SDS011;38422;53.172;6.974;2024-03-23T07:24:55;2.43;;;0.50;;
52512;SDS011;38422;53.172;6.974;2024-03-23T07:27:21;3.83;;;0.73;;
52512;SDS011;38422;53.172;6.974;2024-03-23T07:29:46;3.25;;;0.40;;
52512;SDS011;38422;53.172;6.974;2024-03-23T07:32:12;3.13;;;0.50;;
52512;SDS011;38422;53.172;6.974;2024-03-23T07:34:37;5.57;;;0.60;;
52512;SDS011;38422;53.172;6.974;2024-03-23T07:37:03;5.93;;;0.93;;
52512;SDS011;38422;53.172;6.974;2024-03-23T07:39:29;4.90;;;0.77;;
52512;SDS011;38422;53.172;6.974;2024-03-23T07:41:57;3.60;;;0.60;;
52512;SDS011;38422;53.172;6.974;2024-03-23T07:44:22;2.80;;;0.68;;
52512;SDS011;38422;53.172;6.974;2024-03-23T07:46:48;4.25;;;0.60;;
52512;SDS011;38422;53.172;6.974;2024-03-23T07:49:14;4.80;;;0.90;;
52512;SDS011;38422;53.172;6.974;2024-03-23T07:51:39;4.80;;;0.95;;
52512;SDS011;38422;53.172;6.974;2024-03-23T07:54:06;5.60;;;0.87;;
52512;SDS011;38422;53.172;6.974;2024-03-23T07:56:31;2.85;;;0.90;;
52512;SDS011;38422;53.172;6.974;2024-03-23T07:58:57;4.63;;;0.80;;
52512;SDS011;38422;53.172;6.974;2024-03-23T08:01:23;4.88;;;0.98;;
52512;SDS011;38422;53.172;6.974;2024-03-23T08:03:49;5.43;;;0.93;;
52512;SDS011;38422;53.172;6.974;2024-03-23T08:06:18;5.78;;;0.90;;
52512;SDS011;38422;53.172;6.974;2024-03-23T08:08:45;2.58;;;0.63;;
52512;SDS011;38422;53.172;6.974;2024-03-23T08:11:12;2.38;;;0.50;;
52512;SDS011;38422;53.172;6.974;2024-03-23T08:13:39;2.67;;;0.50;;
52512;SDS011;38422;53.172;6.974;2024-03-23T08:16:06;5.32;;;0.65;;
52512;SDS011;38422;53.172;6.974;2024-03-23T08:18:31;3.70;;;0.60;;
52512;SDS011;38422;53.172;6.974;2024-03-23T08:23:27;3.05;;;0.60;;
52512;SDS011;38422;53.172;6.974;2024-03-23T08:25:57;1.42;;;0.40;;
52512;SDS011;38422;53.172;6.974;2024-03-23T08:28:23;6.13;;;0.73;;
52512;SDS011;38422;53.172;6.974;2024-03-23T08:30:50;2.35;;;0.60;;
52512;SDS011;38422;53.172;6.974;2024-03-23T08:33:16;2.42;;;0.50;;
52512;SDS011;38422;53.172;6.974;2024-03-23T08:35:41;4.45;;;0.90;;
52512;SDS011;38422;53.172;6.974;2024-03-23T08:38:07;3.83;;;0.60;;
52512;SDS011;38422;53.172;6.974;2024-03-23T08:40:33;7.45;;;0.70;;
52512;SDS011;38422;53.172;6.974;2024-03-23T08:42:58;3.15;;;0.70;;
52512;SDS011;38422;53.172;6.974;2024-03-23T08:45:24;7.05;;;0.90;;
52512;SDS011;38422;53.172;6.974;2024-03-23T08:47:50;5.65;;;0.90;;
52512;SDS011;38422;53.172;6.974;2024-03-23T08:50:17;6.63;;;1.00;;
52512;SDS011;38422;53.172;6.974;2024-03-23T08:52:42;6.03;;;0.70;;
52512;SDS011;38422;53.172;6.974;2024-03-23T08:55:08;5.82;;;0.82;;
52512;SDS011;38422;53.172;6.974;2024-03-23T08:57:35;3.17;;;0.80;;
52512;SDS011;38422;53.172;6.974;2024-03-23T09:00:01;4.88;;;1.00;;
52512;SDS011;38422;53.172;6.974;2024-03-23T09:02:27;5.47;;;0.90;;
52512;SDS011;38422;53.172;6.974;2024-03-23T09:04:53;5.40;;;0.70;;
52512;SDS011;38422;53.172;6.974;2024-03-23T09:07:19;3.45;;;0.77;;
52512;SDS011;38422;53.172;6.974;2024-03-23T09:09:44;4.53;;;0.68;;
52512;SDS011;38422;53.172;6.974;2024-03-23T09:12:10;8.95;;;1.00;;
52512;SDS011;38422;53.172;6.974;2024-03-23T09:14:35;4.13;;;1.10;;
52512;SDS011;38422;53.172;6.974;2024-03-23T09:17:01;4.97;;;0.80;;
52512;SDS011;38422;53.172;6.974;2024-03-23T09:19:30;6.70;;;1.30;;
52512;SDS011;38422;53.172;6.974;2024-03-23T09:21:55;4.65;;;0.75;;
52512;SDS011;38422;53.172;6.974;2024-03-23T09:24:21;2.17;;;0.70;;
52512;SDS011;38422;53.172;6.974;2024-03-23T09:26:47;5.47;;;1.15;;
52512;SDS011;38422;53.172;6.974;2024-03-23T09:29:13;4.75;;;1.10;;
52512;SDS011;38422;53.172;6.974;2024-03-23T09:31:39;4.75;;;0.93;;
52512;SDS011;38422;53.172;6.974;2024-03-23T09:34:06;4.60;;;1.02;;
52512;SDS011;38422;53.172;6.974;2024-03-23T09:36:31;5.32;;;1.00;;
52512;SDS011;38422;53.172;6.974;2024-03-23T09:38:57;5.10;;;1.00;;
52512;SDS011;38422;53.172;6.974;2024-03-23T09:41:22;8.35;;;1.20;;
52512;SDS011;38422;53.172;6.974;2024-03-23T09:43:48;6.65;;;1.02;;
52512;SDS011;38422;53.172;6.974;2024-03-23T09:46:18;5.72;;;1.10;;
52512;SDS011;38422;53.172;6.974;2024-03-23T09:48:45;4.63;;;1.00;;
52512;SDS011;38422;53.172;6.974;2024-03-23T09:53:37;4.65;;;1.00;;
52512;SDS011;38422;53.172;6.974;2024-03-23T09:56:04;4.60;;;1.05;;
52512;SDS011;38422;53.172;6.974;2024-03-23T09:58:30;7.32;;;1.33;;
52512;SDS011;38422;53.172;6.974;2024-03-23T10:00:57;4.80;;;0.90;;
52512;SDS011;38422;53.172;6.974;2024-03-23T10:03:23;5.07;;;1.30;;
52512;SDS011;38422;53.172;6.974;2024-03-23T10:05:59;6.90;;;1.08;;
52512;SDS011;38422;53.172;6.974;2024-03-23T10:08:30;8.50;;;1.58;;
52512;SDS011;38422;53.172;6.974;2024-03-23T10:10:56;2.40;;;0.60;;
52512;SDS011;38422;53.172;6.974;2024-03-23T10:13:25;6.05;;;0.90;;
52512;SDS011;38422;53.172;6.974;2024-03-23T10:15:56;2.88;;;0.70;;
52512;SDS011;38422;53.172;6.974;2024-03-23T10:18:23;3.05;;;0.55;;
52512;SDS011;38422;53.172;6.974;2024-03-23T10:23:30;0.73;;;0.20;;
52512;SDS011;38422;53.172;6.974;2024-03-23T10:28:53;1.38;;;0.30;;
52512;SDS011;38422;53.172;6.974;2024-03-23T10:31:23;2.25;;;0.30;;
52512;SDS011;38422;53.172;6.974;2024-03-23T10:33:49;2.55;;;0.30;;
52512;SDS011;38422;53.172;6.974;2024-03-23T10:36:15;5.30;;;0.82;;
52512;SDS011;38422;53.172;6.974;2024-03-23T10:38:41;3.40;;;0.52;;
52512;SDS011;38422;53.172;6.974;2024-03-23T10:41:09;1.90;;;0.40;;
52512;SDS011;38422;53.172;6.974;2024-03-23T10:43:35;3.53;;;0.60;;
52512;SDS011;38422;53.172;6.974;2024-03-23T10:46:02;3.83;;;0.80;;
52512;SDS011;38422;53.172;6.974;2024-03-23T10:48:28;5.17;;;0.80;;
52512;SDS011;38422;53.172;6.974;2024-03-23T10:50:54;5.25;;;0.65;;
52512;SDS011;38422;53.172;6.974;2024-03-23T10:53:21;4.50;;;0.85;;
52512;SDS011;38422;53.172;6.974;2024-03-23T10:55:49;5.00;;;0.82;;
52512;SDS011;38422;53.172;6.974;2024-03-23T10:58:16;4.07;;;0.80;;
52512;SDS011;38422;53.172;6.974;2024-03-23T11:00:46;5.85;;;0.82;;
52512;SDS011;38422;53.172;6.974;2024-03-23T11:03:29;5.22;;;0.75;;
52512;SDS011;38422;53.172;6.974;2024-03-23T11:06:02;5.30;;;0.93;;
52512;SDS011;38422;53.172;6.974;2024-03-23T11:08:32;4.03;;;0.80;;
52512;SDS011;38422;53.172;6.974;2024-03-23T11:11:12;7.47;;;1.10;;
52512;SDS011;38422;53.172;6.974;2024-03-23T11:13:53;3.90;;;0.85;;
52512;SDS011;38422;53.172;6.974;2024-03-23T11:16:26;3.17;;;0.52;;
52512;SDS011;38422;53.172;6.974;2024-03-23T11:22:04;3.70;;;0.70;;
52512;SDS011;38422;53.172;6.974;2024-03-23T11:24:30;3.45;;;0.80;;
52512;SDS011;38422;53.172;6.974;2024-03-23T11:26:56;4.78;;;0.85;;
52512;SDS011;38422;53.172;6.974;2024-03-23T11:29:26;3.38;;;0.68;;
52512;SDS011;38422;53.172;6.974;2024-03-23T11:31:52;3.33;;;0.57;;
52512;SDS011;38422;53.172;6.974;2024-03-23T11:34:21;1.30;;;0.38;;
52512;SDS011;38422;53.172;6.974;2024-03-23T11:36:47;3.42;;;0.50;;
52512;SDS011;38422;53.172;6.974;2024-03-23T11:39:16;2.80;;;0.88;;
52512;SDS011;38422;53.172;6.974;2024-03-23T11:41:49;5.68;;;0.82;;
52512;SDS011;38422;53.172;6.974;2024-03-23T11:44:19;3.38;;;0.50;;
52512;SDS011;38422;53.172;6.974;2024-03-23T11:46:47;1.83;;;0.60;;
52512;SDS011;38422;53.172;6.974;2024-03-23T11:49:48;4.57;;;0.80;;
52512;SDS011;38422;53.172;6.974;2024-03-23T11:52:08;3.15;;;0.60;;
52512;SDS011;38422;53.172;6.974;2024-03-23T11:54:34;3.13;;;0.40;;
52512;SDS011;38422;53.172;6.974;2024-03-23T11:57:00;2.35;;;0.63;;
52512;SDS011;38422;53.172;6.974;2024-03-23T11:59:41;3.67;;;0.90;;
52512;SDS011;38422;53.172;6.974;2024-03-23T12:02:11;5.78;;;1.00;;
52512;SDS011;38422;53.172;6.974;2024-03-23T12:04:39;4.10;;;0.70;;
52512;SDS011;38422;53.172;6.974;2024-03-23T12:07:12;7.82;;;1.15;;
52512;SDS011;38422;53.172;6.974;2024-03-23T12:09:44;4.38;;;0.70;;
52512;SDS011;38422;53.172;6.974;2024-03-23T12:12:16;2.67;;;0.50;;
52512;SDS011;38422;53.172;6.974;2024-03-23T12:14:43;4.68;;;0.52;;
52512;SDS011;38422;53.172;6.974;2024-03-23T12:17:13;6.90;;;0.73;;
52512;SDS011;38422;53.172;6.974;2024-03-23T12:19:40;2.58;;;0.50;;
52512;SDS011;38422;53.172;6.974;2024-03-23T12:22:10;2.53;;;0.57;;
52512;SDS011;38422;53.172;6.974;2024-03-23T12:24:35;3.85;;;0.65;;
52512;SDS011;38422;53.172;6.974;2024-03-23T12:27:02;5.97;;;0.85;;
52512;SDS011;38422;53.172;6.974;2024-03-23T12:29:29;1.92;;;0.50;;
52512;SDS011;38422;53.172;6.974;2024-03-23T12:31:59;1.30;;;0.30;;
52512;SDS011;38422;53.172;6.974;2024-03-23T12:34:27;1.75;;;0.30;;
52512;SDS011;38422;53.172;6.974;2024-03-23T12:36:53;3.55;;;0.50;;
52512;SDS011;38422;53.172;6.974;2024-03-23T12:39:19;3.92;;;0.43;;
52512;SDS011;38422;53.172;6.974;2024-03-23T12:41:48;2.70;;;0.57;;
52512;SDS011;38422;53.172;6.974;2024-03-23T12:44:14;3.75;;;0.60;;
52512;SDS011;38422;53.172;6.974;2024-03-23T12:46:44;2.65;;;0.60;;
52512;SDS011;38422;53.172;6.974;2024-03-23T12:49:10;3.05;;;0.50;;
52512;SDS011;38422;53.172;6.974;2024-03-23T12:51:36;1.63;;;0.50;;
52512;SDS011;38422;53.172;6.974;2024-03-23T12:54:02;3.28;;;0.40;;
52512;SDS011;38422;53.172;6.974;2024-03-23T12:56:28;2.25;;;0.55;;
52512;SDS011;38422;53.172;6.974;2024-03-23T12:58:54;2.60;;;0.68;;
52512;SDS011;38422;53.172;6.974;2024-03-23T13:01:25;3.05;;;0.50;;
52512;SDS011;38422;53.172;6.974;2024-03-23T13:03:51;2.42;;;0.50;;
52512;SDS011;38422;53.172;6.974;2024-03-23T13:06:17;5.20;;;0.80;;
52512;SDS011;38422;53.172;6.974;2024-03-23T13:08:47;3.92;;;0.63;;
52512;SDS011;38422;53.172;6.974;2024-03-23T13:11:15;1.48;;;0.40;;
52512;SDS011;38422;53.172;6.974;2024-03-23T13:13:41;3.13;;;0.60;;
52512;SDS011;38422;53.172;6.974;2024-03-23T13:16:07;4.90;;;1.00;;
52512;SDS011;38422;53.172;6.974;2024-03-23T13:18:33;1.90;;;0.70;;
52512;SDS011;38422;53.172;6.974;2024-03-23T13:20:59;2.08;;;0.63;;
52512;SDS011;38422;53.172;6.974;2024-03-23T13:23:24;3.03;;;0.80;;
52512;SDS011;38422;53.172;6.974;2024-03-23T13:25:54;2.25;;;0.60;;
52512;SDS011;38422;53.172;6.974;2024-03-23T13:28:21;4.03;;;0.60;;
52512;SDS011;38422;53.172;6.974;2024-03-23T13:30:50;3.70;;;0.95;;
52512;SDS011;38422;53.172;6.974;2024-03-23T13:33:20;4.60;;;0.57;;
52512;SDS011;38422;53.172;6.974;2024-03-23T13:35:49;3.58;;;0.63;;
52512;SDS011;38422;53.172;6.974;2024-03-23T13:38:16;1.75;;;0.63;;
52512;SDS011;38422;53.172;6.974;2024-03-23T13:40:51;2.15;;;0.57;;
52512;SDS011;38422;53.172;6.974;2024-03-23T13:43:18;3.75;;;0.68;;
52512;SDS011;38422;53.172;6.974;2024-03-23T13:45:43;4.60;;;0.60;;
52512;SDS011;38422;53.172;6.974;2024-03-23T13:48:09;3.50;;;0.50;;
52512;SDS011;38422;53.172;6.974;2024-03-23T13:50:35;1.67;;;0.30;;
52512;SDS011;38422;53.172;6.974;2024-03-23T13:53:01;3.67;;;0.60;;
52512;SDS011;38422;53.172;6.974;2024-03-23T13:55:27;4.65;;;0.70;;
52512;SDS011;38422;53.172;6.974;2024-03-23T13:57:52;3.22;;;0.77;;
52512;SDS011;38422;53.172;6.974;2024-03-23T14:00:18;5.28;;;0.77;;
52512;SDS011;38422;53.172;6.974;2024-03-23T14:02:45;5.53;;;1.02;;
52512;SDS011;38422;53.172;6.974;2024-03-23T14:05:11;4.60;;;0.70;;
52512;SDS011;38422;53.172;6.974;2024-03-23T14:07:37;5.40;;;1.10;;
52512;SDS011;38422;53.172;6.974;2024-03-23T14:10:03;4.93;;;0.80;;
52512;SDS011;38422;53.172;6.974;2024-03-23T14:12:31;3.55;;;0.63;;
52512;SDS011;38422;53.172;6.974;2024-03-23T14:14:57;5.45;;;1.20;;
52512;SDS011;38422;53.172;6.974;2024-03-23T14:17:23;2.38;;;0.60;;
52512;SDS011;38422;53.172;6.974;2024-03-23T14:19:49;5.30;;;0.73;;
52512;SDS011;38422;53.172;6.974;2024-03-23T14:22:15;2.78;;;0.80;;
52512;SDS011;38422;53.172;6.974;2024-03-23T14:24:44;5.40;;;0.88;;
52512;SDS011;38422;53.172;6.974;2024-03-23T14:27:10;4.45;;;0.80;;
52512;SDS011;38422;53.172;6.974;2024-03-23T14:29:36;2.90;;;0.70;;
52512;SDS011;38422;53.172;6.974;2024-03-23T14:32:01;3.85;;;0.95;;
52512;SDS011;38422;53.172;6.974;2024-03-23T14:34:27;3.33;;;1.00;;
52512;SDS011;38422;53.172;6.974;2024-03-23T14:36:53;4.60;;;0.85;;
52512;SDS011;38422;53.172;6.974;2024-03-23T14:39:22;4.05;;;0.85;;
52512;SDS011;38422;53.172;6.974;2024-03-23T14:41:52;3.88;;;0.60;;
52512;SDS011;38422;53.172;6.974;2024-03-23T14:44:17;3.90;;;0.82;;
52512;SDS011;38422;53.172;6.974;2024-03-23T14:46:43;5.95;;;0.77;;
52512;SDS011;38422;53.172;6.974;2024-03-23T14:49:14;5.60;;;0.85;;
52512;SDS011;38422;53.172;6.974;2024-03-23T14:51:43;3.97;;;0.70;;
52512;SDS011;38422;53.172;6.974;2024-03-23T14:54:08;4.38;;;0.80;;
52512;SDS011;38422;53.172;6.974;2024-03-23T14:56:35;5.72;;;0.90;;
52512;SDS011;38422;53.172;6.974;2024-03-23T14:59:00;3.75;;;0.77;;
52512;SDS011;38422;53.172;6.974;2024-03-23T15:01:26;3.50;;;0.77;;
52512;SDS011;38422;53.172;6.974;2024-03-23T15:03:52;6.47;;;0.82;;
52512;SDS011;38422;53.172;6.974;2024-03-23T15:06:18;6.28;;;0.60;;
52512;SDS011;38422;53.172;6.974;2024-03-23T15:08:44;3.22;;;0.60;;
52512;SDS011;38422;53.172;6.974;2024-03-23T15:11:10;5.20;;;0.80;;
52512;SDS011;38422;53.172;6.974;2024-03-23T15:13:36;3.33;;;1.00;;
52512;SDS011;38422;53.172;6.974;2024-03-23T15:16:03;7.25;;;0.90;;
52512;SDS011;38422;53.172;6.974;2024-03-23T15:18:29;4.72;;;0.70;;
52512;SDS011;38422;53.172;6.974;2024-03-23T15:20:56;5.65;;;0.80;;
52512;SDS011;38422;53.172;6.974;2024-03-23T15:23:28;5.57;;;0.98;;
52512;SDS011;38422;53.172;6.974;2024-03-23T15:25:55;5.10;;;1.13;;
52512;SDS011;38422;53.172;6.974;2024-03-23T15:28:24;6.72;;;1.00;;
52512;SDS011;38422;53.172;6.974;2024-03-23T15:31:06;3.78;;;0.93;;
52512;SDS011;38422;53.172;6.974;2024-03-23T15:33:34;6.05;;;0.90;;
52512;SDS011;38422;53.172;6.974;2024-03-23T15:36:00;5.63;;;1.48;;
52512;SDS011;38422;53.172;6.974;2024-03-23T15:38:26;6.75;;;1.05;;
52512;SDS011;38422;53.172;6.974;2024-03-23T15:40:52;4.20;;;1.40;;
52512;SDS011;38422;53.172;6.974;2024-03-23T15:43:18;6.43;;;1.15;;
52512;SDS011;38422;53.172;6.974;2024-03-23T15:45:44;6.78;;;1.10;;
52512;SDS011;38422;53.172;6.974;2024-03-23T15:48:19;4.30;;;0.50;;